Etusivu
METAR-TAF:

METAR-TAF

Lentoasemat :

Nouakchottin kansainvälinen lentoasema

Nouakchott, Mauritania

Leveyspiiri: 18-18-36N, Pituuspiiri: 015-58-11W, korkeus merenpinnasta: 3 m

Tämänhetkinen sää

Tämä raportti tehtiin 27 minuuttia sitten, kello 04.00 UTC
Tuuli 6 kn etelästä/lounaasta
Lämpötila 24°C
Kosteus 89%
Ilmanpaine 1010 hPa
Näkyvyys: 8000 m

METAR: GQNO 220400Z 20006KT 8000 NSC 24/22 Q1010 NOSIG

Aika: 04:27 (04:27 UTC)

Sääennuste

Tämä raportti tehtiin 5 tuntia ja 27 minuuttia sitten, kello 23.00 UTC
Ennuste voimassa 22. päivästä klo 00 UTC - 23. päivään klo 06 UTC
Tuuli 12 kn lännestä/luoteesta
Näkyvyys: 7000 m

TAF: GQNO 212300Z 2200/2306 30012KT 7000 NSC

Säähavainnot ja -ennusteet yli 4000 lentoasemalta (METAR- ja TAF-raportit).

Käytössä olevat sääasemat on merkitty karttaan keltaisilla ja punaisilla pisteillä.

Aseta hiiri pisteen päälle nähdäksesi sääaseman nimen.

Klikkaa sitten nähdäksesi säähavainnot ja -ennusteet.

Kartan vaihtaminen: klikkaa mustalla rastilla varustettuja vihreitä pisteitä, niin voit zoomata sisään; viivalla varustettua vihreää pistettä, niin voit zoomata ulos tai vihreitä nuolia, niin pääset viereisille kartoille.


METAR-TAF: